createdAt,value
2018-07-31T00:00:10.664Z,22.40
2018-07-31T00:05:14.753Z,22.40
2018-07-31T00:15:22.715Z,22.30
2018-07-31T00:20:26.768Z,22.20
2018-07-31T00:25:30.854Z,22.10
2018-07-31T00:40:42.541Z,22.00
2018-07-31T00:45:46.590Z,21.90
2018-07-31T00:50:50.699Z,21.90
2018-07-31T00:55:54.779Z,21.70
2018-07-31T01:06:02.662Z,21.70
2018-07-31T01:11:06.760Z,21.70
2018-07-31T01:21:14.643Z,21.50
2018-07-31T01:36:27.257Z,21.20
2018-07-31T01:41:31.334Z,21.30
2018-07-31T01:46:35.397Z,21.30
2018-07-31T02:01:47.102Z,21.00
2018-07-31T02:06:51.156Z,20.90
2018-07-31T02:11:55.317Z,20.90
2018-07-31T02:22:03.188Z,20.80
2018-07-31T02:32:11.080Z,20.60
2018-07-31T02:42:18.946Z,20.50
2018-07-31T02:47:24.030Z,20.40
2018-07-31T02:52:28.120Z,20.40
2018-07-31T02:57:32.178Z,20.30
2018-07-31T03:07:40.044Z,20.30
2018-07-31T03:12:44.107Z,20.20
2018-07-31T03:17:48.167Z,20.20
2018-07-31T03:27:56.050Z,20.10
2018-07-31T03:38:04.266Z,20.00
2018-07-31T03:53:16.213Z,20.00
2018-07-31T04:08:28.047Z,19.90
2018-07-31T04:18:35.945Z,19.90
2018-07-31T04:23:40.068Z,20.00
2018-07-31T04:28:44.147Z,19.90
2018-07-31T04:33:48.221Z,20.00
2018-07-31T04:38:52.366Z,20.10
2018-07-31T04:49:00.270Z,20.20
2018-07-31T04:59:08.250Z,20.50
2018-07-31T05:04:12.300Z,20.60
2018-07-31T05:19:24.027Z,21.00
2018-07-31T05:24:28.123Z,21.00
2018-07-31T05:29:32.169Z,21.00
2018-07-31T05:39:40.259Z,21.70
2018-07-31T05:54:52.147Z,23.40
2018-07-31T05:59:56.207Z,24.40
2018-07-31T06:05:00.256Z,25.30
2018-07-31T06:25:18.431Z,28.10
2018-07-31T06:30:22.513Z,28.80
2018-07-31T06:40:30.383Z,28.30
2018-07-31T06:45:34.469Z,28.10
2018-07-31T06:50:38.607Z,27.60
2018-07-31T06:55:42.672Z,27.10
2018-07-31T07:00:46.837Z,27.10
2018-07-31T07:05:51.270Z,26.60
2018-07-31T07:10:55.421Z,26.40
2018-07-31T07:15:59.517Z,26.70
2018-07-31T07:21:03.566Z,27.10
2018-07-31T07:26:07.639Z,27.60
2018-07-31T07:36:15.533Z,30.00
2018-07-31T07:41:20.180Z,30.40
2018-07-31T07:46:24.272Z,30.90
2018-07-31T07:51:28.347Z,31.00
2018-07-31T07:56:32.399Z,30.50
2018-07-31T08:06:40.253Z,31.80
2018-07-31T08:11:51.103Z,32.40
2018-07-31T08:16:55.214Z,31.80
2018-07-31T08:21:59.282Z,31.30
2018-07-31T08:27:03.345Z,32.50
2018-07-31T08:32:07.410Z,33.20
2018-07-31T08:37:11.512Z,33.30
2018-07-31T08:42:15.661Z,34.40
2018-07-31T08:47:19.761Z,35.60
2018-07-31T08:52:23.885Z,36.10
2018-07-31T08:57:28.038Z,36.20
2018-07-31T09:07:36.159Z,36.10
2018-07-31T09:22:47.862Z,34.40
2018-07-31T09:27:51.897Z,35.80
2018-07-31T09:38:05.078Z,35.00
2018-07-31T09:43:09.127Z,35.40
2018-07-31T09:48:14.053Z,36.40
2018-07-31T09:53:18.126Z,37.00
2018-07-31T10:03:26.026Z,36.60
2018-07-31T10:08:30.195Z,36.40
2018-07-31T10:13:34.245Z,36.20
2018-07-31T10:23:42.083Z,34.30
2018-07-31T10:28:46.114Z,33.90
2018-07-31T10:33:50.141Z,34.20
2018-07-31T10:38:54.241Z,34.50
2018-07-31T10:43:58.336Z,34.10
2018-07-31T10:49:02.377Z,34.10
2018-07-31T10:54:06.487Z,34.10
2018-07-31T10:59:10.575Z,34.10
2018-07-31T11:04:14.656Z,33.80
2018-07-31T11:09:18.711Z,33.70
2018-07-31T11:19:26.597Z,33.40
2018-07-31T11:24:30.722Z,33.50
2018-07-31T11:29:34.813Z,33.60
2018-07-31T11:34:39.113Z,33.60
2018-07-31T11:39:43.168Z,33.50
2018-07-31T11:44:47.260Z,33.40
2018-07-31T12:10:06.801Z,32.00
2018-07-31T12:15:10.870Z,31.80
2018-07-31T12:20:14.945Z,31.80
2018-07-31T12:25:19.019Z,31.80
2018-07-31T12:30:23.053Z,31.80
2018-07-31T12:35:27.300Z,31.80
2018-07-31T12:40:31.371Z,31.80
2018-07-31T12:45:35.453Z,31.80
2018-07-31T12:50:39.529Z,31.80
2018-07-31T12:55:43.599Z,31.80
2018-07-31T13:00:47.654Z,31.80
2018-07-31T13:05:51.715Z,31.70
2018-07-31T13:10:56.035Z,31.60
2018-07-31T13:21:03.903Z,31.60
2018-07-31T13:26:08.177Z,31.60
2018-07-31T13:31:12.258Z,31.60
2018-07-31T13:36:16.330Z,31.60
2018-07-31T13:46:24.583Z,31.50
2018-07-31T13:51:28.726Z,31.60
2018-07-31T14:01:36.693Z,31.60
2018-07-31T14:06:40.735Z,31.60
2018-07-31T14:11:44.812Z,31.50
2018-07-31T14:16:48.873Z,31.30
2018-07-31T14:21:52.949Z,31.30
2018-07-31T14:32:00.843Z,31.20
2018-07-31T14:37:04.920Z,31.20
2018-07-31T14:42:09.351Z,31.30
2018-07-31T14:47:14.032Z,31.20
2018-07-31T14:52:18.161Z,31.20
2018-07-31T14:57:22.261Z,31.00
2018-07-31T15:12:34.040Z,31.40
2018-07-31T15:22:42.055Z,31.40
2018-07-31T15:27:46.119Z,31.50
2018-07-31T15:42:57.944Z,31.70
2018-07-31T15:53:05.895Z,31.80
2018-07-31T16:18:25.574Z,31.30
2018-07-31T16:23:29.857Z,31.20
2018-07-31T16:28:33.957Z,31.30
2018-07-31T16:33:37.941Z,31.30
2018-07-31T16:43:45.841Z,31.10
2018-07-31T16:48:49.889Z,31.00
2018-07-31T16:53:53.941Z,30.90
2018-07-31T16:58:57.998Z,30.80
2018-07-31T17:04:02.054Z,30.60
2018-07-31T17:19:14.941Z,30.40
2018-07-31T17:29:22.995Z,30.30
2018-07-31T17:49:38.601Z,29.90
2018-07-31T17:59:46.471Z,29.70
2018-07-31T18:04:50.531Z,29.70
2018-07-31T18:09:54.617Z,29.70
2018-07-31T18:14:59.387Z,29.60
2018-07-31T18:20:03.453Z,29.60
2018-07-31T18:25:07.633Z,29.50
2018-07-31T18:45:24.046Z,28.90
2018-07-31T18:50:28.167Z,28.70
2018-07-31T18:55:32.415Z,28.60
2018-07-31T19:10:44.244Z,28.20
2018-07-31T19:15:48.375Z,28.00
2018-07-31T19:25:56.285Z,27.90
2018-07-31T19:36:04.237Z,27.60
2018-07-31T19:41:08.281Z,27.40
2018-07-31T19:46:12.389Z,27.20
2018-07-31T19:51:16.531Z,27.10
2018-07-31T19:56:21.098Z,27.00
2018-07-31T20:01:25.165Z,26.90
2018-07-31T20:06:29.226Z,26.80
2018-07-31T20:16:37.099Z,26.50
2018-07-31T20:26:45.052Z,26.30
2018-07-31T20:41:56.939Z,26.00
2018-07-31T20:47:01.054Z,26.00
2018-07-31T21:02:12.768Z,25.90
2018-07-31T21:17:24.539Z,25.90
2018-07-31T21:27:32.526Z,25.70
2018-07-31T21:32:36.732Z,25.70
2018-07-31T21:37:40.790Z,25.60
2018-07-31T21:42:44.893Z,25.50
2018-07-31T21:47:49.038Z,25.40
2018-07-31T21:52:53.105Z,25.30
2018-07-31T21:57:57.467Z,25.20
2018-07-31T22:03:01.874Z,25.10
2018-07-31T22:08:05.951Z,25.00
2018-07-31T22:13:10.063Z,25.00
2018-07-31T22:18:14.113Z,24.90
2018-07-31T22:23:18.317Z,24.80
2018-07-31T22:33:26.267Z,24.60
2018-07-31T22:38:30.305Z,24.40
2018-07-31T22:43:34.453Z,24.30
2018-07-31T22:48:38.454Z,24.30
2018-07-31T22:53:42.522Z,24.20
2018-07-31T22:58:46.597Z,24.10
2018-07-31T23:08:54.510Z,23.90
2018-07-31T23:13:58.595Z,23.90
2018-07-31T23:19:02.610Z,23.80
2018-07-31T23:24:06.674Z,23.70
2018-07-31T23:29:10.767Z,23.60
2018-07-31T23:34:14.829Z,23.60
2018-07-31T23:44:22.724Z,23.50
2018-07-31T23:49:27.793Z,23.50
2018-07-31T23:54:31.869Z,23.40
2018-07-31T23:59:35.933Z,23.40
